Chomedey, Canada
Current Conditions -  °F | °C
As of 12:36 PM on Tuesday 21 Oct 2014 (Local Time) from CYUL Reporting Station
Light Rain Light Rain  
Wind Chill: 37°   Ceiling: 5500
Heat Index: 45°   Visibility: 15mi
Dew Point: 37°   Wind: 17mph
Humidity: 76%   Direction: 30°NNE
Pressure: 30.03"   Gusts: NA
Location:  45.55°N, 73.73°W
Report Text: CYUL 211636Z 03015KT 15SM -RA OVC055 07/03 A3003 RMK SC8 SLP171
Loading
Personal Weather Stations






























Interactive Weather Map
Tropical Storm Tracking
New forecast layout! Learn more

10-Day Weather Forecast

Advertisements
Track Severe Weather on mobile